createdAt,value
2023-04-11T00:00:18.470Z,5.53
2023-04-11T00:03:21.172Z,6.45
2023-04-11T00:06:27.869Z,6.60
2023-04-11T00:09:30.119Z,6.57
2023-04-11T00:12:34.688Z,6.07
2023-04-11T00:15:37.717Z,6.53
2023-04-11T00:18:45.106Z,6.25
2023-04-11T00:21:47.363Z,6.32
2023-04-11T00:24:49.796Z,6.05
2023-04-11T00:27:52.095Z,6.05
2023-04-11T00:30:54.475Z,6.15
2023-04-11T00:33:56.807Z,5.95
2023-04-11T00:36:59.162Z,5.30
2023-04-11T00:40:01.475Z,5.78
2023-04-11T00:43:03.846Z,5.78
2023-04-11T00:46:06.555Z,4.93
2023-04-11T00:49:09.697Z,6.20
2023-04-11T00:52:13.936Z,6.65
2023-04-11T00:55:16.557Z,6.43
2023-04-11T00:58:18.923Z,6.47
2023-04-11T01:01:25.286Z,5.95
2023-04-11T01:04:29.609Z,6.22
2023-04-11T01:07:33.262Z,6.03
2023-04-11T01:10:35.991Z,5.85
2023-04-11T01:13:41.620Z,5.32
2023-04-11T01:16:47.232Z,5.53
2023-04-11T01:19:49.762Z,6.13
2023-04-11T01:22:52.747Z,6.10
2023-04-11T01:25:55.025Z,5.65
2023-04-11T01:28:57.953Z,6.60
2023-04-11T01:32:00.640Z,6.13
2023-04-11T01:35:05.592Z,6.97
2023-04-11T01:38:08.529Z,5.47
2023-04-11T01:41:12.324Z,6.00
2023-04-11T01:44:14.693Z,6.43
2023-04-11T01:47:16.991Z,6.38
2023-04-11T01:50:19.337Z,6.43
2023-04-11T01:53:21.773Z,5.50
2023-04-11T01:56:24.174Z,5.43
2023-04-11T01:59:26.523Z,4.60
2023-04-11T02:02:29.030Z,5.30
2023-04-11T02:05:31.378Z,6.20
2023-04-11T02:08:33.737Z,6.10
2023-04-11T02:11:36.066Z,6.07
2023-04-11T02:14:47.488Z,5.63
2023-04-11T02:17:49.802Z,4.93
2023-04-11T02:20:53.420Z,5.63
2023-04-11T02:23:56.200Z,5.78
2023-04-11T02:26:58.480Z,5.97
2023-04-11T02:30:05.882Z,6.30
2023-04-11T02:33:08.247Z,5.95
2023-04-11T02:36:12.624Z,6.15
2023-04-11T02:39:15.682Z,6.50
2023-04-11T02:42:18.038Z,6.65
2023-04-11T02:45:20.931Z,5.70
2023-04-11T02:48:23.564Z,6.47
2023-04-11T02:51:26.158Z,5.72
2023-04-11T02:54:28.783Z,5.60
2023-04-11T02:57:33.679Z,6.10
2023-04-11T03:00:37.973Z,6.38
2023-04-11T03:03:43.820Z,6.15
2023-04-11T03:06:47.356Z,6.03
2023-04-11T03:09:50.802Z,5.60
2023-04-11T03:12:53.114Z,6.45
2023-04-11T03:15:55.674Z,6.30
2023-04-11T03:19:01.648Z,5.78
2023-04-11T03:22:05.512Z,6.00
2023-04-11T03:25:08.242Z,6.53
2023-04-11T03:28:11.466Z,5.50
2023-04-11T03:31:14.185Z,6.68
2023-04-11T03:34:18.291Z,6.43
2023-04-11T03:37:20.864Z,6.30
2023-04-11T03:40:23.454Z,5.78
2023-04-11T03:43:33.193Z,5.70
2023-04-11T03:46:36.807Z,6.18
2023-04-11T03:49:39.331Z,6.18
2023-04-11T03:52:42.380Z,6.18
2023-04-11T03:55:49.338Z,5.40
2023-04-11T03:58:54.078Z,6.35
2023-04-11T04:02:00.086Z,5.55
2023-04-11T04:05:02.965Z,5.93
2023-04-11T04:08:08.779Z,6.05
2023-04-11T04:11:22.964Z,6.30
2023-04-11T04:14:26.898Z,5.25
2023-04-11T04:17:30.156Z,5.55
2023-04-11T04:20:33.184Z,6.63
2023-04-11T04:23:36.467Z,6.05
2023-04-11T04:27:01.079Z,6.13
2023-04-11T04:30:19.396Z,6.18
2023-04-11T04:33:43.083Z,5.63
2023-04-11T04:36:56.728Z,6.18
2023-04-11T04:40:09.100Z,6.50
2023-04-11T04:43:25.314Z,6.15
2023-04-11T04:46:36.960Z,6.30
2023-04-11T04:49:40.967Z,5.95
2023-04-11T04:52:43.232Z,6.22
2023-04-11T04:55:46.612Z,6.13
2023-04-11T04:58:51.730Z,6.38
2023-04-11T05:01:55.276Z,6.10
2023-04-11T05:05:04.519Z,6.22
2023-04-11T05:08:08.866Z,5.60
2023-04-11T05:11:13.290Z,6.22
2023-04-11T05:14:17.444Z,5.82
2023-04-11T05:17:20.213Z,6.25
2023-04-11T05:20:24.883Z,6.47
2023-04-11T05:23:27.213Z,6.07
2023-04-11T05:26:31.982Z,6.03
2023-04-11T05:29:34.297Z,6.15
2023-04-11T05:32:37.923Z,5.80
2023-04-11T05:35:40.751Z,6.20
2023-04-11T05:38:46.590Z,5.50
2023-04-11T05:41:48.959Z,5.40
2023-04-11T05:44:51.281Z,6.18
2023-04-11T05:47:53.643Z,5.97
2023-04-11T05:50:58.263Z,6.40
2023-04-11T05:54:00.585Z,5.88
2023-04-11T05:57:03.657Z,6.18
2023-04-11T06:00:12.785Z,6.35
2023-04-11T06:03:15.191Z,5.70
2023-04-11T06:06:17.489Z,6.07
2023-04-11T06:09:20.068Z,5.43
2023-04-11T06:12:22.270Z,5.95
2023-04-11T06:15:25.825Z,6.65
2023-04-11T06:18:28.214Z,5.10
2023-04-11T06:21:32.117Z,6.15
2023-04-11T06:24:39.843Z,5.25
2023-04-11T06:27:42.525Z,5.00
2023-04-11T06:30:44.807Z,6.20
2023-04-11T06:33:47.080Z,6.20
2023-04-11T06:36:50.162Z,6.18
2023-04-11T06:39:52.461Z,5.57
2023-04-11T06:42:56.082Z,5.70
2023-04-11T06:45:58.701Z,5.90
2023-04-11T06:49:01.240Z,5.07
2023-04-11T06:52:03.840Z,4.93
2023-04-11T06:55:07.490Z,5.25
2023-04-11T06:58:10.013Z,4.95
2023-04-11T07:01:14.512Z,5.30
2023-04-11T07:04:17.372Z,4.80
2023-04-11T07:07:19.829Z,5.18
2023-04-11T07:10:22.135Z,5.68
2023-04-11T07:13:24.574Z,4.70
2023-04-11T07:16:27.834Z,5.20
2023-04-11T07:19:30.136Z,4.80
2023-04-11T07:22:32.395Z,5.38
2023-04-11T07:25:34.829Z,4.80
2023-04-11T07:28:38.912Z,6.03
2023-04-11T07:31:41.755Z,5.03
2023-04-11T07:34:44.067Z,4.60
2023-04-11T07:37:46.567Z,4.90
2023-04-11T07:40:48.897Z,4.75
2023-04-11T07:43:51.521Z,5.03
2023-04-11T07:46:53.815Z,5.32
2023-04-11T07:49:56.098Z,4.75
2023-04-11T07:52:58.442Z,5.50
2023-04-11T07:56:01.053Z,5.07
2023-04-11T07:59:03.552Z,4.63
2023-04-11T08:02:08.346Z,4.88
2023-04-11T08:05:10.823Z,4.38
2023-04-11T08:08:14.085Z,5.07
2023-04-11T08:11:16.646Z,4.43
2023-04-11T08:14:19.021Z,4.40
2023-04-11T08:17:28.058Z,4.47
2023-04-11T08:20:31.256Z,4.60
2023-04-11T08:23:33.528Z,4.70
2023-04-11T08:26:35.858Z,5.18
2023-04-11T08:29:38.042Z,4.72
2023-04-11T08:32:41.420Z,4.15
2023-04-11T08:35:43.813Z,4.18
2023-04-11T08:38:46.317Z,4.40
2023-04-11T08:41:48.703Z,4.45
2023-04-11T08:44:53.852Z,4.13
2023-04-11T08:47:56.182Z,4.45
2023-04-11T08:50:58.571Z,4.15
2023-04-11T08:54:05.896Z,4.38
2023-04-11T08:57:08.385Z,4.43
2023-04-11T09:00:14.442Z,3.95
2023-04-11T09:03:17.738Z,3.72
2023-04-11T09:06:20.258Z,3.78
2023-04-11T09:09:31.029Z,4.30
2023-04-11T09:12:33.556Z,3.25
2023-04-11T09:15:35.980Z,3.63
2023-04-11T09:18:40.247Z,3.40
2023-04-11T09:21:50.304Z,3.53
2023-04-11T09:25:03.822Z,3.35
2023-04-11T09:28:11.050Z,3.90
2023-04-11T09:31:13.882Z,3.45
2023-04-11T09:34:27.913Z,2.65
2023-04-11T09:37:43.144Z,3.75
2023-04-11T09:40:45.385Z,3.45
2023-04-11T09:43:58.222Z,3.70
2023-04-11T09:47:00.792Z,4.05
2023-04-11T09:50:03.577Z,3.80
2023-04-11T09:53:09.230Z,3.70
2023-04-11T09:56:12.334Z,3.58
2023-04-11T09:59:18.009Z,3.63
2023-04-11T10:02:21.082Z,3.50
2023-04-11T10:05:28.601Z,3.80
2023-04-11T10:08:36.128Z,3.80
2023-04-11T10:11:41.751Z,3.95
2023-04-11T10:14:45.135Z,4.03
2023-04-11T10:18:13.937Z,4.30
2023-04-11T10:21:33.015Z,4.55
2023-04-11T10:24:35.543Z,3.63
2023-04-11T10:27:54.820Z,3.72
2023-04-11T10:31:04.877Z,3.90
2023-04-11T10:34:16.484Z,4.38
2023-04-11T10:37:31.026Z,4.63
2023-04-11T10:40:33.765Z,4.63
2023-04-11T10:43:39.160Z,4.57
2023-04-11T10:46:54.280Z,4.90
2023-04-11T10:49:56.856Z,5.43
2023-04-11T10:52:59.917Z,4.45
2023-04-11T10:56:02.731Z,4.97
2023-04-11T10:59:04.958Z,5.10
2023-04-11T11:02:07.471Z,4.43
2023-04-11T11:05:17.098Z,5.40
2023-04-11T11:08:30.700Z,5.03
2023-04-11T11:11:33.174Z,4.72
2023-04-11T11:14:36.066Z,5.57
2023-04-11T11:17:38.498Z,5.55
2023-04-11T11:20:40.894Z,5.00
2023-04-11T11:24:03.585Z,5.13
2023-04-11T11:27:05.920Z,5.60
2023-04-11T11:30:12.112Z,5.82
2023-04-11T11:33:19.381Z,5.55
2023-04-11T11:36:21.718Z,5.13
2023-04-11T11:39:24.768Z,5.80
2023-04-11T11:42:28.167Z,5.45
2023-04-11T11:45:30.611Z,6.32
2023-04-11T11:48:32.854Z,5.70
2023-04-11T11:51:41.940Z,6.47
2023-04-11T11:54:48.146Z,6.22
2023-04-11T11:57:51.037Z,5.78
2023-04-11T12:00:54.192Z,6.00
2023-04-11T12:03:58.379Z,5.93
2023-04-11T12:07:09.133Z,5.80
2023-04-11T12:10:16.592Z,6.65
2023-04-11T12:13:23.827Z,5.43
2023-04-11T12:16:26.411Z,4.78
2023-04-11T12:19:29.116Z,5.03
2023-04-11T12:22:31.300Z,6.05
2023-04-11T12:25:33.634Z,5.97
2023-04-11T12:28:36.008Z,6.35
2023-04-11T12:31:38.288Z,5.97
2023-04-11T12:34:40.555Z,6.25
2023-04-11T12:37:42.960Z,5.43
2023-04-11T12:40:45.706Z,5.65
2023-04-11T12:43:47.932Z,5.25
2023-04-11T12:46:50.251Z,5.22
2023-04-11T12:49:52.523Z,6.00
2023-04-11T12:52:56.265Z,5.55
2023-04-11T12:55:58.775Z,6.15
2023-04-11T12:59:01.275Z,5.55
2023-04-11T13:02:03.743Z,6.93
2023-04-11T13:05:09.283Z,5.80
2023-04-11T13:08:11.765Z,6.68
2023-04-11T13:11:14.025Z,6.75
2023-04-11T13:14:16.426Z,6.70
2023-04-11T13:17:18.739Z,6.43
2023-04-11T13:20:21.135Z,6.47
2023-04-11T13:23:23.346Z,5.82
2023-04-11T13:26:25.672Z,6.20
2023-04-11T13:29:27.856Z,5.82
2023-04-11T13:32:30.095Z,6.90
2023-04-11T13:35:32.401Z,6.93
2023-04-11T13:38:34.745Z,5.57
2023-04-11T13:41:37.080Z,6.35
2023-04-11T13:44:39.406Z,5.15
2023-04-11T13:47:41.755Z,5.85
2023-04-11T13:50:44.046Z,5.45
2023-04-11T13:53:46.355Z,5.13
2023-04-11T13:56:48.623Z,5.47
2023-04-11T13:59:51.178Z,6.05
2023-04-11T14:02:53.764Z,5.38
2023-04-11T14:05:56.313Z,5.20
2023-04-11T14:08:59.111Z,4.88
2023-04-11T14:12:01.707Z,6.07
2023-04-11T14:15:05.542Z,5.50
2023-04-11T14:18:07.814Z,5.20
2023-04-11T14:21:10.233Z,5.25
2023-04-11T14:24:12.551Z,5.63
2023-04-11T14:27:14.931Z,5.50
2023-04-11T14:30:17.117Z,5.38
2023-04-11T14:33:19.428Z,5.07
2023-04-11T14:36:21.804Z,5.68
2023-04-11T14:39:24.180Z,5.32
2023-04-11T14:42:26.490Z,5.50
2023-04-11T14:45:28.783Z,5.40
2023-04-11T14:48:31.211Z,5.10
2023-04-11T14:51:33.552Z,5.22
2023-04-11T14:54:35.951Z,4.80
2023-04-11T14:57:53.881Z,5.78
2023-04-11T15:00:56.211Z,4.72
2023-04-11T15:03:58.856Z,4.30
2023-04-11T15:07:01.812Z,4.30
2023-04-11T15:10:04.246Z,4.32
2023-04-11T15:13:09.132Z,4.50
2023-04-11T15:16:11.931Z,4.18
2023-04-11T15:19:14.207Z,4.38
2023-04-11T15:22:16.406Z,4.25
2023-04-11T15:25:18.666Z,3.97
2023-04-11T15:28:21.626Z,4.90
2023-04-11T15:31:25.790Z,4.28
2023-04-11T15:34:28.158Z,5.15
2023-04-11T15:37:30.400Z,4.40
2023-04-11T15:40:32.683Z,4.40
2023-04-11T15:43:34.971Z,4.00
2023-04-11T15:46:37.317Z,4.00
2023-04-11T15:49:40.067Z,4.60
2023-04-11T15:52:43.096Z,4.45
2023-04-11T15:55:47.249Z,3.60
2023-04-11T15:58:49.582Z,3.75
2023-04-11T16:01:52.350Z,3.58
2023-04-11T16:04:56.177Z,4.68
2023-04-11T16:07:59.604Z,4.20
2023-04-11T16:11:01.921Z,4.22
2023-04-11T16:14:04.220Z,3.55
2023-04-11T16:17:06.569Z,3.92
2023-04-11T16:20:12.069Z,4.95
2023-04-11T16:23:14.679Z,3.70
2023-04-11T16:26:17.086Z,3.70
2023-04-11T16:29:19.432Z,4.55
2023-04-11T16:32:21.842Z,4.18
2023-04-11T16:35:24.138Z,4.20
2023-04-11T16:38:26.529Z,4.30
2023-04-11T16:41:28.882Z,4.43
2023-04-11T16:44:31.493Z,4.00
2023-04-11T16:47:33.910Z,3.70
2023-04-11T16:50:36.422Z,3.38
2023-04-11T16:53:39.558Z,4.47
2023-04-11T16:56:41.812Z,3.90
2023-04-11T16:59:44.228Z,3.78
2023-04-11T17:02:47.345Z,3.75
2023-04-11T17:05:49.982Z,3.55
2023-04-11T17:08:53.074Z,3.70
2023-04-11T17:11:55.549Z,3.22
2023-04-11T17:15:00.586Z,3.42
2023-04-11T17:18:03.212Z,3.33
2023-04-11T17:21:06.395Z,3.78
2023-04-11T17:24:08.712Z,3.15
2023-04-11T17:27:11.013Z,3.70
2023-04-11T17:30:13.874Z,2.95
2023-04-11T17:33:17.082Z,4.28
2023-04-11T17:36:19.487Z,3.20
2023-04-11T17:39:22.162Z,3.65
2023-04-11T17:42:24.590Z,3.03
2023-04-11T17:45:27.393Z,3.30
2023-04-11T17:48:29.730Z,3.35
2023-04-11T17:51:31.919Z,3.42
2023-04-11T17:54:34.659Z,3.63
2023-04-11T17:57:36.998Z,3.83
2023-04-11T18:00:52.538Z,3.03
2023-04-11T18:04:02.645Z,3.00
2023-04-11T18:07:07.158Z,3.20
2023-04-11T18:10:13.136Z,3.20
2023-04-11T18:13:15.503Z,3.08
2023-04-11T18:16:18.251Z,3.38
2023-04-11T18:19:20.669Z,2.95
2023-04-11T18:22:22.847Z,2.90
2023-04-11T18:25:25.298Z,3.72
2023-04-11T18:28:27.591Z,3.30
2023-04-11T18:31:35.164Z,3.13
2023-04-11T18:34:37.581Z,3.28
2023-04-11T18:37:41.712Z,3.35
2023-04-11T18:40:44.058Z,3.55
2023-04-11T18:43:46.380Z,3.95
2023-04-11T18:46:50.327Z,3.90
2023-04-11T18:49:53.893Z,4.10
2023-04-11T18:52:58.958Z,3.28
2023-04-11T18:56:04.246Z,3.35
2023-04-11T18:59:09.733Z,3.28
2023-04-11T19:02:14.417Z,4.00
2023-04-11T19:05:18.976Z,4.55
2023-04-11T19:08:21.556Z,4.07
2023-04-11T19:11:23.795Z,4.45
2023-04-11T19:14:26.344Z,4.22
2023-04-11T19:17:28.615Z,5.63
2023-04-11T19:20:30.806Z,4.07
2023-04-11T19:23:33.177Z,3.88
2023-04-11T19:26:35.534Z,4.03
2023-04-11T19:29:37.750Z,4.00
2023-04-11T19:32:44.008Z,3.78
2023-04-11T19:35:47.839Z,3.65
2023-04-11T19:38:50.262Z,3.10
2023-04-11T19:41:52.534Z,3.42
2023-04-11T19:44:54.970Z,3.30
2023-04-11T19:47:57.222Z,3.60
2023-04-11T19:51:01.128Z,3.72
2023-04-11T19:54:04.690Z,3.40
2023-04-11T19:57:07.155Z,3.72
2023-04-11T20:00:17.667Z,3.03
2023-04-11T20:03:21.184Z,3.58
2023-04-11T20:06:23.691Z,3.70
2023-04-11T20:09:26.236Z,3.80
2023-04-11T20:12:28.443Z,3.08
2023-04-11T20:15:31.283Z,3.45
2023-04-11T20:18:34.725Z,3.03
2023-04-11T20:21:37.016Z,3.70
2023-04-11T20:24:39.332Z,3.28
2023-04-11T20:27:42.715Z,3.70
2023-04-11T20:30:44.935Z,4.10
2023-04-11T20:33:47.447Z,4.03
2023-04-11T20:36:49.709Z,3.65
2023-04-11T20:39:52.008Z,3.67
2023-04-11T20:42:56.489Z,3.45
2023-04-11T20:45:58.845Z,4.93
2023-04-11T20:49:02.342Z,4.05
2023-04-11T20:52:04.694Z,4.63
2023-04-11T20:55:08.610Z,4.03
2023-04-11T20:58:12.127Z,4.00
2023-04-11T21:01:15.690Z,4.75
2023-04-11T21:04:18.881Z,4.88
2023-04-11T21:07:21.624Z,4.28
2023-04-11T21:10:24.406Z,4.32
2023-04-11T21:13:26.684Z,4.88
2023-04-11T21:16:29.239Z,5.18
2023-04-11T21:19:31.614Z,4.75
2023-04-11T21:22:35.336Z,4.88
2023-04-11T21:25:38.144Z,4.32
2023-04-11T21:28:40.583Z,5.00
2023-04-11T21:31:42.865Z,4.50
2023-04-11T21:34:45.174Z,5.25
2023-04-11T21:37:49.227Z,4.95
2023-04-11T21:40:52.351Z,6.05
2023-04-11T21:43:54.664Z,4.80
2023-04-11T21:46:57.204Z,5.35
2023-04-11T21:49:59.590Z,5.38
2023-04-11T21:53:01.910Z,5.55
2023-04-11T21:56:06.862Z,6.05
2023-04-11T21:59:09.285Z,5.68
2023-04-11T22:02:11.917Z,5.82
2023-04-11T22:05:14.325Z,5.53
2023-04-11T22:08:20.374Z,5.97
2023-04-11T22:11:22.863Z,5.50
2023-04-11T22:14:27.390Z,5.57
2023-04-11T22:17:31.546Z,6.22
2023-04-11T22:20:34.545Z,6.60
2023-04-11T22:23:36.906Z,5.60
2023-04-11T22:26:46.555Z,6.47
2023-04-11T22:29:49.760Z,6.32
2023-04-11T22:32:54.383Z,5.70
2023-04-11T22:35:58.598Z,5.80
2023-04-11T22:39:01.490Z,6.03
2023-04-11T22:42:03.878Z,5.93
2023-04-11T22:45:07.210Z,5.80
2023-04-11T22:48:09.503Z,5.10
2023-04-11T22:51:14.333Z,5.28
2023-04-11T22:54:16.541Z,5.07
2023-04-11T22:57:19.083Z,5.95
2023-04-11T23:00:24.206Z,5.55
2023-04-11T23:03:28.823Z,6.32
2023-04-11T23:06:31.215Z,5.50
2023-04-11T23:09:33.488Z,5.82
2023-04-11T23:12:35.656Z,6.60
2023-04-11T23:15:37.879Z,5.90
2023-04-11T23:18:40.155Z,6.55
2023-04-11T23:21:43.277Z,5.95
2023-04-11T23:24:45.807Z,5.45
2023-04-11T23:27:48.079Z,6.13
2023-04-11T23:30:50.379Z,5.30
2023-04-11T23:33:53.861Z,5.80
2023-04-11T23:36:57.801Z,4.93
2023-04-11T23:40:00.731Z,5.28
2023-04-11T23:43:03.068Z,6.05
2023-04-11T23:46:06.017Z,6.47
2023-04-11T23:49:08.238Z,5.63
2023-04-11T23:52:12.403Z,6.00
2023-04-11T23:55:14.805Z,5.90
2023-04-11T23:58:16.978Z,5.95
